Live aus Altenrhein
LIVE
LSZR 231020Z 26009KT 9999 BKN021 18/13 Q1019 NOSIG RMK C

People´s Info Center:

Öffnungszeiten Mo-Fr, 8-18 Uhr

 

info@peoples.ch

 
Aus Österreich:

T: +43 (0)5572 203 610

 

Aus CH / LI / DE:

T: +41 (0)71 858 51 60

 

Webcam Flughafen St.Gallen-Altenrhein

Live-Bilder und Zeitraffer LSZR / ACH.

 

Live aus Altenrhein
LIVE
LSZR 231020Z 26009KT 9999 BKN021 18/13 Q1019 NOSIG RMK C
Zeitraffer heute
2017-07-23 00:14:55
LSZR 222150Z AUTO 25027KT 210V290 1200 R10/0650D TSRA BKN036CB 18/15 Q1017
Zeitraffer gestern
2017-07-22 00:00:00
LSZR 212150Z AUTO 31009KT 9999 -RA BKN031TCU BKN070 20/17 Q1014 RETS
Zeitraffer vor 3 Tagen
2017-07-20 00:14:55
LSZR 192150Z AUTO 15006KT 120V210 9999 FEW080 OVC100 23/13 Q1014